Terminal Aerodrome Forecast
Issued by NWS Sterling, VA

Current Version | Previous Version | Graphics & Text | Print | Product List | Glossary On
Versions: 1 2 3 4 5 6 7 8 9 10 11 12 13 14 15 16 17 18 19 20 21 22 23
000
FTUS41 KLWX 251136
TAFIAD
TAF
KIAD 251136Z 2512/2618 32008KT P6SM SKC
     FM251800 33010KT P6SM BKN040
     FM260000 VRB03KT P6SM SCT040
     FM261100 03004KT P6SM BKN050
     FM261400 09005KT P6SM BKN050=

USA.gov is the U.S. government's official web portal to all federal, state and local government web resources and services.